Time,TemperatureF,DewpointF,PressureIn,WindDirection,WindDirectionDegrees,WindSpeedMPH,WindSpeedGustMPH,Humidity,HourlyPrecipIn,Conditions,Clouds,dailyrainin,SoftwareType,DateUTC
2013-03-20 00:00:00,43.4,29.6,29.78,ENE,61,4.0,4.0,58,0.00,,,0.00,Wunderground v.1.15,2013-03-20 05:00:00,
2013-03-20 00:10:00,43.1,29.7,29.79,NE,34,2.0,21.0,59,0.00,,,0.00,Wunderground v.1.15,2013-03-20 05:10:00,
2013-03-20 00:20:00,42.8,29.9,29.79,NE,41,1.0,21.0,60,0.00,,,0.00,Wunderground v.1.15,2013-03-20 05:20:00,
2013-03-20 00:30:00,42.5,30.0,29.79,NW,306,1.0,1.0,61,0.00,,,0.00,Wunderground v.1.15,2013-03-20 05:30:00,
2013-03-20 00:40:00,42.3,30.2,29.79,North,352,0.0,21.0,62,0.00,,,0.00,Wunderground v.1.15,2013-03-20 05:40:00,
2013-03-20 00:50:00,41.9,30.2,29.80,North,359,0.0,21.0,63,0.00,,,0.00,Wunderground v.1.15,2013-03-20 05:50:00,
2013-03-20 01:00:00,41.6,30.3,29.80,NNW,345,1.0,21.0,64,0.00,,,0.00,Wunderground v.1.15,2013-03-20 06:00:00,
2013-03-20 01:10:00,41.3,30.0,29.79,North,356,1.0,1.0,64,0.00,,,0.00,Wunderground v.1.15,2013-03-20 06:10:00,
2013-03-20 01:20:00,41.1,30.2,29.79,NW,325,1.0,21.0,65,0.00,,,0.00,Wunderground v.1.15,2013-03-20 06:20:00,
2013-03-20 01:30:00,40.8,30.3,29.79,NNE,22,1.0,21.0,66,0.00,,,0.00,Wunderground v.1.15,2013-03-20 06:30:00,
2013-03-20 01:40:00,40.5,30.4,29.79,NNE,29,1.0,1.0,67,0.00,,,0.00,Wunderground v.1.15,2013-03-20 06:40:00,
2013-03-20 01:45:00,40.4,30.7,29.79,NE,40,1.0,21.0,68,0.00,,,0.00,Wunderground v.1.15,2013-03-20 06:45:00,
2013-03-20 01:55:00,40.3,30.6,29.79,North,4,1.0,21.0,68,0.00,,,0.00,Wunderground v.1.15,2013-03-20 06:55:00,
2013-03-20 02:00:00,40.3,30.6,29.79,NW,316,1.0,1.0,68,0.00,,,0.00,Wunderground v.1.15,2013-03-20 07:00:00,
2013-03-20 02:10:00,40.1,30.7,29.79,NNE,32,0.0,21.0,69,0.00,,,0.00,Wunderground v.1.15,2013-03-20 07:10:00,
2013-03-20 02:20:00,39.9,30.9,29.79,NE,34,0.0,21.0,70,0.00,,,0.00,Wunderground v.1.15,2013-03-20 07:20:00,
2013-03-20 02:30:00,39.6,30.6,29.79,NW,304,0.0,21.0,70,0.00,,,0.00,Wunderground v.1.15,2013-03-20 07:30:00,
2013-03-20 02:35:00,39.4,30.8,29.80,NW,318,0.0,21.0,71,0.00,,,0.00,Wunderground v.1.15,2013-03-20 07:35:00,
2013-03-20 02:45:00,39.5,30.9,29.80,NNW,334,2.0,21.0,71,0.00,,,0.00,Wunderground v.1.15,2013-03-20 07:45:00,
2013-03-20 02:55:00,39.5,30.9,29.80,NNW,347,1.0,21.0,71,0.00,,,0.00,Wunderground v.1.15,2013-03-20 07:55:00,
2013-03-20 03:01:00,39.6,31.0,29.80,NW,314,1.0,21.0,71,0.00,,,0.00,Wunderground v.1.15,2013-03-20 08:01:00,
2013-03-20 03:10:00,39.7,30.7,29.80,NW,310,2.0,21.0,70,0.00,,,0.00,Wunderground v.1.15,2013-03-20 08:10:00,
2013-03-20 03:20:00,39.7,30.7,29.80,NW,317,2.0,21.0,70,0.00,,,0.00,Wunderground v.1.15,2013-03-20 08:20:00,
2013-03-20 03:25:00,39.7,30.7,29.80,NE,46,2.0,2.0,70,0.00,,,0.00,Wunderground v.1.15,2013-03-20 08:25:00,
2013-03-20 03:35:00,39.4,30.8,29.80,NNW,327,1.0,21.0,71,0.00,,,0.00,Wunderground v.1.15,2013-03-20 08:35:00,
2013-03-20 03:45:00,39.1,30.5,29.79,NNW,334,0.0,21.0,71,0.00,,,0.00,Wunderground v.1.15,2013-03-20 08:45:00,
2013-03-20 03:55:00,38.9,30.6,29.79,NNW,335,1.0,21.0,72,0.00,,,0.00,Wunderground v.1.15,2013-03-20 08:55:00,
2013-03-20 04:00:00,38.8,30.5,29.79,NNW,339,1.0,21.0,72,0.00,,,0.00,Wunderground v.1.15,2013-03-20 09:00:00,
2013-03-20 04:10:00,38.5,30.3,29.79,NW,326,1.0,1.0,72,0.00,,,0.00,Wunderground v.1.15,2013-03-20 09:10:00,
2013-03-20 04:20:00,37.8,30.6,29.79,NW,319,0.0,21.0,75,0.00,,,0.00,Wunderground v.1.15,2013-03-20 09:20:00,
2013-03-20 04:30:00,37.4,30.2,29.79,NNE,17,0.0,21.0,75,0.00,,,0.00,Wunderground v.1.15,2013-03-20 09:30:00,
2013-03-20 04:40:00,36.9,30.0,29.79,North,356,0.0,21.0,76,0.00,,,0.00,Wunderground v.1.15,2013-03-20 09:40:00,
2013-03-20 04:50:00,36.7,30.5,29.79,NNW,332,0.0,21.0,78,0.00,,,0.00,Wunderground v.1.15,2013-03-20 09:50:00,
2013-03-20 05:00:00,36.5,30.3,29.80,NNW,329,0.0,21.0,78,0.00,,,0.00,Wunderground v.1.15,2013-03-20 10:00:00,
2013-03-20 05:10:00,36.2,30.3,29.80,NNW,328,0.0,21.0,79,0.00,,,0.00,Wunderground v.1.15,2013-03-20 10:10:00,
2013-03-20 05:20:00,35.4,29.5,29.80,NNW,329,0.0,21.0,79,0.00,,,0.00,Wunderground v.1.15,2013-03-20 10:20:00,
2013-03-20 05:30:00,34.6,29.7,29.80,NNW,329,0.0,21.0,82,0.00,,,0.00,Wunderground v.1.15,2013-03-20 10:30:00,
2013-03-20 05:35:00,34.7,30.1,29.80,NNW,329,0.0,21.0,83,0.00,,,0.00,Wunderground v.1.15,2013-03-20 10:35:00,
2013-03-20 05:40:00,34.9,30.6,29.80,NNW,329,0.0,21.0,84,0.00,,,0.00,Wunderground v.1.15,2013-03-20 10:40:00,
2013-03-20 05:50:00,35.2,30.9,29.81,NNW,328,0.0,21.0,84,0.00,,,0.00,Wunderground v.1.15,2013-03-20 10:50:00,
2013-03-20 06:01:00,35.0,30.7,29.81,NNW,329,0.0,21.0,84,0.00,,,0.00,Wunderground v.1.15,2013-03-20 11:01:00,
2013-03-20 06:10:00,34.7,30.7,29.82,NNW,329,0.0,21.0,85,0.00,,,0.00,Wunderground v.1.15,2013-03-20 11:10:00,
2013-03-20 06:20:00,34.6,30.6,29.82,NNW,328,0.0,21.0,85,0.00,,,0.00,Wunderground v.1.15,2013-03-20 11:20:00,
2013-03-20 06:25:00,34.5,30.7,29.83,NNW,329,0.0,21.0,86,0.00,,,0.00,Wunderground v.1.15,2013-03-20 11:25:00,
2013-03-20 06:35:00,34.2,30.4,29.83,NNW,329,0.0,21.0,86,0.00,,,0.00,Wunderground v.1.15,2013-03-20 11:35:00,
2013-03-20 06:45:00,33.9,30.4,29.84,NNW,329,0.0,21.0,87,0.00,,,0.00,Wunderground v.1.15,2013-03-20 11:45:00,
2013-03-20 06:55:00,33.7,30.2,29.85,NNW,327,0.0,21.0,87,0.00,,,0.00,Wunderground v.1.15,2013-03-20 11:55:00,
2013-03-20 07:05:00,33.6,30.4,29.85,NNW,328,0.0,21.0,88,0.00,,,0.00,Wunderground v.1.15,2013-03-20 12:05:00,
2013-03-20 07:10:00,33.3,29.8,29.85,NNW,328,0.0,21.0,87,0.00,,,0.00,Wunderground v.1.15,2013-03-20 12:10:00,
2013-03-20 07:15:00,33.1,29.9,29.86,WNW,283,0.0,21.0,88,0.00,,,0.00,Wunderground v.1.15,2013-03-20 12:15:00,
2013-03-20 07:25:00,32.8,29.6,29.86,WNW,283,0.0,21.0,88,0.00,,,0.00,Wunderground v.1.15,2013-03-20 12:25:00,
2013-03-20 07:35:00,33.2,30.3,29.87,WNW,302,1.0,21.0,89,0.00,,,0.00,Wunderground v.1.15,2013-03-20 12:35:00,
2013-03-20 07:45:00,34.0,30.8,29.87,NW,314,1.0,1.0,88,0.00,,,0.00,Wunderground v.1.15,2013-03-20 12:45:00,
2013-03-20 07:50:00,34.3,30.8,29.88,NW,311,0.0,21.0,87,0.00,,,0.00,Wunderground v.1.15,2013-03-20 12:50:00,
2013-03-20 08:00:00,35.1,31.3,29.88,NW,321,1.0,1.0,86,0.00,,,0.00,Wunderground v.1.15,2013-03-20 13:00:00,
2013-03-20 08:10:00,35.6,31.5,29.88,NNW,337,2.0,21.0,85,0.00,,,0.00,Wunderground v.1.15,2013-03-20 13:10:00,
2013-03-20 08:15:00,35.9,31.5,29.89,NW,314,2.0,21.0,84,0.00,,,0.00,Wunderground v.1.15,2013-03-20 13:15:00,
2013-03-20 08:25:00,36.8,32.4,29.89,NNW,335,2.0,3.0,84,0.00,,,0.00,Wunderground v.1.15,2013-03-20 13:25:00,
2013-03-20 08:35:00,37.5,32.5,29.90,NNW,341,3.0,21.0,82,0.00,,,0.00,Wunderground v.1.15,2013-03-20 13:35:00,
2013-03-20 08:45:00,38.2,32.9,29.90,WNW,300,7.0,21.0,81,0.00,,,0.00,Wunderground v.1.15,2013-03-20 13:45:00,
2013-03-20 08:55:00,38.9,33.3,29.91,NNW,345,6.0,21.0,80,0.00,,,0.00,Wunderground v.1.15,2013-03-20 13:55:00,
2013-03-20 09:05:00,39.8,33.5,29.91,NW,304,6.0,11.0,78,0.00,,,0.00,Wunderground v.1.15,2013-03-20 14:05:00,
2013-03-20 09:15:00,39.9,33.3,29.92,NNW,335,9.0,9.0,77,0.00,,,0.00,Wunderground v.1.15,2013-03-20 14:15:00,
2013-03-20 09:25:00,40.5,34.2,29.93,NW,309,8.0,8.0,78,0.00,,,0.00,Wunderground v.1.15,2013-03-20 14:25:00,
2013-03-20 09:30:00,40.4,33.8,29.93,North,6,9.0,11.0,77,0.00,,,0.00,Wunderground v.1.15,2013-03-20 14:30:00,
2013-03-20 09:40:00,40.5,33.9,29.93,North,356,9.0,12.0,77,0.00,,,0.00,Wunderground v.1.15,2013-03-20 14:40:00,
2013-03-20 09:50:00,40.8,33.8,29.93,NE,34,8.0,8.0,76,0.00,,,0.00,Wunderground v.1.15,2013-03-20 14:50:00,
2013-03-20 10:00:00,40.4,33.4,29.94,East,96,11.0,11.0,76,0.00,,,0.00,Wunderground v.1.15,2013-03-20 15:00:00,
2013-03-20 10:10:00,40.8,33.8,29.94,NNE,15,8.0,16.0,76,0.00,,,0.00,Wunderground v.1.15,2013-03-20 15:10:00,
2013-03-20 10:20:00,40.6,33.3,29.93,NNW,345,9.0,9.0,75,0.00,,,0.00,Wunderground v.1.15,2013-03-20 15:20:00,
2013-03-20 10:30:00,41.3,33.3,29.93,NW,313,8.0,8.0,73,0.00,,,0.00,Wunderground v.1.15,2013-03-20 15:30:00,
2013-03-20 10:40:00,42.7,31.4,29.93,East,79,8.0,16.0,64,0.00,,,0.00,Wunderground v.1.15,2013-03-20 15:40:00,
2013-03-20 10:45:00,42.3,31.0,29.93,ENE,70,10.0,16.0,64,0.00,,,0.00,Wunderground v.1.15,2013-03-20 15:45:00,
2013-03-20 10:55:00,42.8,30.7,29.93,NE,46,9.0,16.0,62,0.00,,,0.00,Wunderground v.1.15,2013-03-20 15:55:00,
2013-03-20 11:00:00,43.2,29.0,29.93,NW,310,9.0,16.0,57,0.00,,,0.00,Wunderground v.1.15,2013-03-20 16:00:00,
2013-03-20 11:10:00,43.7,29.0,29.92,ENE,67,8.0,16.0,56,0.00,,,0.00,Wunderground v.1.15,2013-03-20 16:10:00,
2013-03-20 11:15:00,43.7,26.7,29.93,NNE,20,10.0,16.0,51,0.00,,,0.00,Wunderground v.1.15,2013-03-20 16:15:00,
2013-03-20 11:20:00,43.8,27.3,29.92,ENE,67,11.0,16.0,52,0.00,,,0.00,Wunderground v.1.15,2013-03-20 16:20:00,
2013-03-20 11:30:00,43.9,26.9,29.92,NNE,22,11.0,16.0,51,0.00,,,0.00,Wunderground v.1.15,2013-03-20 16:30:00,
2013-03-20 11:40:00,44.4,25.9,29.92,NE,46,10.0,16.0,48,0.00,,,0.00,Wunderground v.1.15,2013-03-20 16:40:00,
2013-03-20 11:45:00,44.3,25.3,29.91,NE,56,11.0,16.0,47,0.00,,,0.00,Wunderground v.1.15,2013-03-20 16:45:00,
2013-03-20 11:55:00,45.4,25.3,29.91,NNE,17,11.0,11.0,45,0.00,,,0.00,Wunderground v.1.15,2013-03-20 16:55:00,
2013-03-20 12:05:00,45.3,25.2,29.91,ENE,61,11.0,16.0,45,0.00,,,0.00,Wunderground v.1.15,2013-03-20 17:05:00,
2013-03-20 12:15:00,46.3,25.6,29.90,ENE,65,7.0,7.0,44,0.00,,,0.00,Wunderground v.1.15,2013-03-20 17:15:00,
2013-03-20 12:25:00,46.4,25.6,29.90,NE,53,6.0,6.0,44,0.00,,,0.00,Wunderground v.1.15,2013-03-20 17:25:00,
2013-03-20 12:35:00,46.6,24.7,29.90,NNE,31,9.0,9.0,42,0.00,,,0.00,Wunderground v.1.15,2013-03-20 17:35:00,
2013-03-20 12:45:00,46.9,25.5,29.89,West,269,7.0,16.0,43,0.00,,,0.00,Wunderground v.1.15,2013-03-20 17:45:00,
2013-03-20 12:55:00,47.4,24.9,29.89,NW,316,8.0,8.0,41,0.00,,,0.00,Wunderground v.1.15,2013-03-20 17:55:00,
2013-03-20 13:05:00,47.3,23.6,29.88,NNE,21,9.0,16.0,39,0.00,,,0.00,Wunderground v.1.15,2013-03-20 18:05:00,
2013-03-20 13:15:00,47.9,21.5,29.88,NNW,341,7.0,16.0,35,0.00,,,0.00,Wunderground v.1.15,2013-03-20 18:15:00,
2013-03-20 13:25:00,48.3,20.5,29.88,ENE,61,7.0,16.0,33,0.00,,,0.00,Wunderground v.1.15,2013-03-20 18:25:00,
2013-03-20 13:35:00,47.9,20.8,29.87,West,269,8.0,8.0,34,0.00,,,0.00,Wunderground v.1.15,2013-03-20 18:35:00,
2013-03-20 13:45:00,48.2,21.1,29.86,NW,311,8.0,8.0,34,0.00,,,0.00,Wunderground v.1.15,2013-03-20 18:45:00,
2013-03-20 13:55:00,47.9,20.8,29.86,NNE,15,9.0,9.0,34,0.00,,,0.00,Wunderground v.1.15,2013-03-20 18:55:00,
2013-03-20 14:05:00,48.7,20.8,29.85,WNW,296,6.0,16.0,33,0.00,,,0.00,Wunderground v.1.15,2013-03-20 19:05:00,
2013-03-20 14:10:00,48.7,20.8,29.85,NNW,331,7.0,16.0,33,0.00,,,0.00,Wunderground v.1.15,2013-03-20 19:10:00,
2013-03-20 14:20:00,48.4,20.6,29.84,WNW,303,5.0,16.0,33,0.00,,,0.00,Wunderground v.1.15,2013-03-20 19:20:00,
2013-03-20 14:25:00,48.3,21.2,29.83,NW,315,7.0,16.0,34,0.00,,,0.00,Wunderground v.1.15,2013-03-20 19:25:00,
2013-03-20 14:35:00,49.1,21.9,29.83,West,281,6.0,6.0,34,0.00,,,0.00,Wunderground v.1.15,2013-03-20 19:35:00,
2013-03-20 14:45:00,49.7,21.0,29.82,WNW,300,4.0,4.0,32,0.00,,,0.00,Wunderground v.1.15,2013-03-20 19:45:00,
2013-03-20 14:55:00,49.1,21.2,29.82,ENE,58,7.0,16.0,33,0.00,,,0.00,Wunderground v.1.15,2013-03-20 19:55:00,
2013-03-20 15:00:00,48.8,20.9,29.81,NW,309,7.0,7.0,33,0.00,,,0.00,Wunderground v.1.15,2013-03-20 20:00:00,
2013-03-20 15:10:00,49.7,21.0,29.81,NE,41,6.0,16.0,32,0.00,,,0.00,Wunderground v.1.15,2013-03-20 20:10:00,
2013-03-20 15:15:00,49.4,21.5,29.80,WNW,288,6.0,16.0,33,0.00,,,0.00,Wunderground v.1.15,2013-03-20 20:15:00,
2013-03-20 15:25:00,49.7,21.7,29.79,ENE,70,4.0,16.0,33,0.00,,,0.00,Wunderground v.1.15,2013-03-20 20:25:00,
2013-03-20 15:35:00,49.5,22.3,29.78,NNW,328,8.0,16.0,34,0.00,,,0.00,Wunderground v.1.15,2013-03-20 20:35:00,
2013-03-20 15:45:00,50.1,22.8,29.77,NE,50,4.0,16.0,34,0.00,,,0.00,Wunderground v.1.15,2013-03-20 20:45:00,
2013-03-20 15:55:00,50.6,22.5,29.77,North,11,5.0,16.0,33,0.00,,,0.00,Wunderground v.1.15,2013-03-20 20:55:00,
2013-03-20 16:00:00,50.4,23.1,29.77,NW,313,6.0,16.0,34,0.00,,,0.00,Wunderground v.1.15,2013-03-20 21:00:00,
2013-03-20 16:10:00,50.0,23.4,29.77,NNE,21,6.0,16.0,35,0.00,,,0.00,Wunderground v.1.15,2013-03-20 21:10:00,
2013-03-20 16:20:00,50.2,22.2,29.76,NW,318,4.0,4.0,33,0.00,,,0.00,Wunderground v.1.15,2013-03-20 21:20:00,
2013-03-20 16:30:00,49.9,21.9,29.75,NNW,332,4.0,16.0,33,0.00,,,0.00,Wunderground v.1.15,2013-03-20 21:30:00,
2013-03-20 16:35:00,50.0,22.0,29.75,NE,54,5.0,16.0,33,0.00,,,0.00,Wunderground v.1.15,2013-03-20 21:35:00,
2013-03-20 16:45:00,50.9,22.1,29.75,NNW,337,3.0,9.0,32,0.00,,,0.00,Wunderground v.1.15,2013-03-20 21:45:00,
2013-03-20 16:55:00,50.3,21.5,29.74,NNW,335,4.0,16.0,32,0.00,,,0.00,Wunderground v.1.15,2013-03-20 21:55:00,
2013-03-20 17:00:00,50.4,21.6,29.74,NE,52,2.0,2.0,32,0.00,,,0.00,Wunderground v.1.15,2013-03-20 22:00:00,
2013-03-20 17:10:00,50.3,21.5,29.74,East,84,3.0,16.0,32,0.00,,,0.00,Wunderground v.1.15,2013-03-20 22:10:00,
2013-03-20 17:20:00,50.4,21.6,29.74,East,97,4.0,4.0,32,0.00,,,0.00,Wunderground v.1.15,2013-03-20 22:20:00,
2013-03-20 17:30:00,50.7,21.9,29.73,NW,325,3.0,16.0,32,0.00,,,0.00,Wunderground v.1.15,2013-03-20 22:30:00,
2013-03-20 17:40:00,50.7,21.1,29.73,NW,313,5.0,5.0,31,0.00,,,0.00,Wunderground v.1.15,2013-03-20 22:40:00,
2013-03-20 17:50:00,51.3,21.6,29.72,NE,51,2.0,16.0,31,0.00,,,0.00,Wunderground v.1.15,2013-03-20 22:50:00,
2013-03-20 18:01:00,50.4,21.6,29.72,East,91,3.0,3.0,32,0.00,,,0.00,Wunderground v.1.15,2013-03-20 23:01:00,
2013-03-20 18:10:00,50.1,21.3,29.72,NE,49,4.0,16.0,32,0.00,,,0.00,Wunderground v.1.15,2013-03-20 23:10:00,
2013-03-20 18:20:00,49.7,21.0,29.71,NNE,23,3.0,16.0,32,0.00,,,0.00,Wunderground v.1.15,2013-03-20 23:20:00,
2013-03-20 18:30:00,49.4,21.5,29.71,ENE,70,4.0,16.0,33,0.00,,,0.00,Wunderground v.1.15,2013-03-20 23:30:00,
2013-03-20 18:40:00,49.1,21.2,29.71,NE,46,4.0,16.0,33,0.00,,,0.00,Wunderground v.1.15,2013-03-20 23:40:00,
2013-03-20 18:50:00,48.8,21.6,29.70,ENE,65,5.0,16.0,34,0.00,,,0.00,Wunderground v.1.15,2013-03-20 23:50:00,
2013-03-20 18:55:00,48.6,20.8,29.70,ENE,75,5.0,5.0,33,0.00,,,0.00,Wunderground v.1.15,2013-03-20 23:55:00,
2013-03-20 19:05:00,48.3,21.2,29.70,ENE,77,5.0,16.0,34,0.00,,,0.00,Wunderground v.1.15,2013-03-21 00:05:00,
2013-03-20 19:15:00,48.0,21.6,29.70,ENE,68,4.0,4.0,35,0.00,,,0.00,Wunderground v.1.15,2013-03-21 00:15:00,
2013-03-20 19:20:00,47.9,21.5,29.70,ENE,78,3.0,16.0,35,0.00,,,0.00,Wunderground v.1.15,2013-03-21 00:20:00,
2013-03-20 19:30:00,47.4,21.1,29.69,ENE,78,3.0,4.0,35,0.00,,,0.00,Wunderground v.1.15,2013-03-21 00:30:00,
2013-03-20 19:40:00,46.9,22.0,29.69,ENE,75,4.0,16.0,37,0.00,,,0.00,Wunderground v.1.15,2013-03-21 00:40:00,
2013-03-20 19:50:00,46.5,21.6,29.68,NE,49,5.0,16.0,37,0.00,,,0.00,Wunderground v.1.15,2013-03-21 00:50:00,
2013-03-20 20:05:00,46.1,21.2,29.67,ENE,77,5.0,5.0,37,0.00,,,0.00,Wunderground v.1.15,2013-03-21 01:05:00,
2013-03-20 20:15:00,45.7,21.5,29.67,NE,54,4.0,16.0,38,0.00,,,0.00,Wunderground v.1.15,2013-03-21 01:15:00,
2013-03-20 20:25:00,45.5,21.3,29.67,East,79,4.0,16.0,38,0.00,,,0.00,Wunderground v.1.15,2013-03-21 01:25:00,
2013-03-20 20:35:00,45.2,21.1,29.67,ENE,71,4.0,4.0,38,0.00,,,0.00,Wunderground v.1.15,2013-03-21 01:35:00,
2013-03-20 20:45:00,45.0,20.9,29.67,ENE,70,4.0,4.0,38,0.00,,,0.00,Wunderground v.1.15,2013-03-21 01:45:00,
2013-03-20 20:55:00,44.5,21.0,29.67,ENE,63,4.0,16.0,39,0.00,,,0.00,Wunderground v.1.15,2013-03-21 01:55:00,
2013-03-20 21:00:00,44.3,21.5,29.67,NE,49,4.0,4.0,40,0.00,,,0.00,Wunderground v.1.15,2013-03-21 02:00:00,
2013-03-20 21:10:00,44.1,21.9,29.67,ENE,78,3.0,16.0,41,0.00,,,0.00,Wunderground v.1.15,2013-03-21 02:10:00,
2013-03-20 21:20:00,43.7,22.1,29.67,ENE,73,4.0,16.0,42,0.00,,,0.00,Wunderground v.1.15,2013-03-21 02:20:00,
2013-03-20 21:30:00,43.2,22.2,29.67,East,92,4.0,4.0,43,0.00,,,0.00,Wunderground v.1.15,2013-03-21 02:30:00,
2013-03-20 21:40:00,42.7,22.8,29.67,East,94,3.0,3.0,45,0.00,,,0.00,Wunderground v.1.15,2013-03-21 02:40:00,
2013-03-20 21:50:00,42.5,22.6,29.67,ENE,72,2.0,16.0,45,0.00,,,0.00,Wunderground v.1.15,2013-03-21 02:50:00,
2013-03-20 22:00:00,42.3,23.0,29.67,ENE,75,2.0,16.0,46,0.00,,,0.00,Wunderground v.1.15,2013-03-21 03:00:00,
2013-03-20 22:10:00,42.1,22.8,29.66,East,81,2.0,16.0,46,0.00,,,0.00,Wunderground v.1.15,2013-03-21 03:10:00,
2013-03-20 22:20:00,41.9,23.1,29.66,ENE,71,2.0,2.0,47,0.00,,,0.00,Wunderground v.1.15,2013-03-21 03:20:00,
2013-03-20 22:30:00,41.6,22.8,29.66,ENE,75,2.0,16.0,47,0.00,,,0.00,Wunderground v.1.15,2013-03-21 03:30:00,
2013-03-20 22:40:00,41.5,22.7,29.65,ENE,70,3.0,16.0,47,0.00,,,0.00,Wunderground v.1.15,2013-03-21 03:40:00,
2013-03-20 22:45:00,41.4,22.7,29.65,East,79,3.0,16.0,47,0.00,,,0.00,Wunderground v.1.15,2013-03-21 03:45:00,
2013-03-20 22:55:00,41.5,22.7,29.65,East,86,4.0,6.0,47,0.00,,,0.00,Wunderground v.1.15,2013-03-21 03:55:00,
2013-03-20 23:01:00,41.5,22.7,29.65,East,84,4.0,4.0,47,0.00,,,0.00,Wunderground v.1.15,2013-03-21 04:01:00,
2013-03-20 23:05:00,41.5,22.7,29.65,ENE,77,4.0,16.0,47,0.00,,,0.00,Wunderground v.1.15,2013-03-21 04:05:00,
2013-03-20 23:15:00,41.5,22.7,29.64,ENE,77,5.0,16.0,47,0.00,,,0.00,Wunderground v.1.15,2013-03-21 04:15:00,
2013-03-20 23:20:00,41.5,22.7,29.64,East,91,5.0,16.0,47,0.00,,,0.00,Wunderground v.1.15,2013-03-21 04:20:00,
2013-03-20 23:25:00,41.5,22.7,29.64,ENE,66,5.0,16.0,47,0.00,,,0.00,Wunderground v.1.15,2013-03-21 04:25:00,
2013-03-20 23:35:00,41.5,22.7,29.63,ENE,71,6.0,6.0,47,0.00,,,0.00,Wunderground v.1.15,2013-03-21 04:35:00,
2013-03-20 23:45:00,41.5,22.7,29.62,ENE,77,7.0,16.0,47,0.00,,,0.00,Wunderground v.1.15,2013-03-21 04:45:00,
2013-03-20 23:55:00,41.5,22.7,29.62,ENE,72,6.0,6.0,47,0.00,,,0.00,Wunderground v.1.15,2013-03-21 04:55:00,